createdAt,value
2018-07-08T00:02:23.651Z,15.60
2018-07-08T00:04:53.002Z,15.60
2018-07-08T00:07:21.839Z,15.60
2018-07-08T00:09:50.948Z,15.60
2018-07-08T00:12:19.960Z,15.60
2018-07-08T00:14:48.997Z,15.40
2018-07-08T00:17:17.881Z,15.30
2018-07-08T00:19:46.812Z,15.30
2018-07-08T00:22:15.892Z,15.40
2018-07-08T00:24:44.621Z,15.40
2018-07-08T00:27:13.582Z,15.30
2018-07-08T00:29:42.506Z,15.20
2018-07-08T00:32:11.576Z,15.10
2018-07-08T00:34:41.008Z,15.10
2018-07-08T00:37:10.082Z,15.00
2018-07-08T00:39:39.178Z,14.80
2018-07-08T00:42:08.395Z,14.90
2018-07-08T00:44:37.368Z,14.80
2018-07-08T00:47:06.537Z,14.90
2018-07-08T00:52:03.594Z,14.90
2018-07-08T00:54:32.581Z,14.90
2018-07-08T00:57:01.547Z,14.80
2018-07-08T00:59:30.328Z,14.80
2018-07-08T01:01:59.629Z,14.70
2018-07-08T01:04:28.451Z,14.70
2018-07-08T01:09:26.546Z,14.60
2018-07-08T01:11:55.378Z,14.70
2018-07-08T01:14:24.381Z,14.50
2018-07-08T01:16:53.163Z,14.50
2018-07-08T01:19:22.076Z,14.50
2018-07-08T01:21:51.268Z,14.50
2018-07-08T01:24:20.158Z,14.50
2018-07-08T01:26:49.134Z,14.50
2018-07-08T01:29:18.378Z,14.50
2018-07-08T01:31:47.235Z,14.40
2018-07-08T01:34:16.686Z,14.50
2018-07-08T01:36:45.621Z,14.30
2018-07-08T01:39:14.567Z,14.30
2018-07-08T01:41:43.423Z,14.30
2018-07-08T01:44:12.454Z,14.30
2018-07-08T01:49:09.918Z,14.30
2018-07-08T01:51:38.762Z,14.30
2018-07-08T01:54:07.587Z,14.20
2018-07-08T01:56:36.656Z,14.20
2018-07-08T01:59:05.452Z,14.10
2018-07-08T02:01:34.435Z,14.10
2018-07-08T02:04:03.582Z,14.10
2018-07-08T02:06:32.578Z,14.10
2018-07-08T02:09:01.673Z,14.10
2018-07-08T02:11:31.066Z,14.10
2018-07-08T02:13:59.898Z,14.00
2018-07-08T02:16:28.811Z,14.00
2018-07-08T02:18:57.788Z,14.00
2018-07-08T02:21:26.814Z,14.00
2018-07-08T02:23:55.897Z,14.00
2018-07-08T02:26:24.874Z,13.90
2018-07-08T02:28:54.159Z,13.90
2018-07-08T02:31:23.184Z,13.90
2018-07-08T02:33:52.081Z,13.90
2018-07-08T02:36:21.026Z,13.90
2018-07-08T02:38:50.052Z,13.90
2018-07-08T02:41:19.067Z,13.90
2018-07-08T02:43:48.049Z,13.80
2018-07-08T02:46:16.985Z,13.80
2018-07-08T02:48:45.932Z,13.70
2018-07-08T02:51:14.939Z,13.70
2018-07-08T02:53:43.922Z,13.70
2018-07-08T02:56:12.573Z,13.60
2018-07-08T02:58:43.644Z,13.60
2018-07-08T03:01:12.443Z,13.70
2018-07-08T03:03:41.349Z,13.70
2018-07-08T03:06:10.269Z,13.70
2018-07-08T03:11:07.693Z,13.60
2018-07-08T03:13:38.743Z,13.60
2018-07-08T03:16:07.751Z,13.60
2018-07-08T03:18:36.840Z,13.50
2018-07-08T03:21:05.897Z,13.40
2018-07-08T03:23:35.051Z,13.40
2018-07-08T03:26:04.050Z,13.40
2018-07-08T03:28:32.807Z,13.50
2018-07-08T03:31:01.735Z,13.50
2018-07-08T03:33:30.674Z,13.40
2018-07-08T03:35:59.574Z,13.40
2018-07-08T03:38:28.483Z,13.40
2018-07-08T03:40:57.284Z,13.40
2018-07-08T03:43:26.140Z,13.30
2018-07-08T03:45:55.136Z,13.40
2018-07-08T03:48:24.352Z,13.40
2018-07-08T03:50:53.230Z,13.40
2018-07-08T03:53:22.319Z,13.40
2018-07-08T03:55:51.441Z,13.40
2018-07-08T03:58:20.550Z,13.50
2018-07-08T04:00:49.506Z,13.50
2018-07-08T04:03:18.363Z,13.40
2018-07-08T04:05:47.156Z,13.40
2018-07-08T04:08:15.905Z,13.50
2018-07-08T04:10:44.558Z,13.50
2018-07-08T04:13:13.479Z,13.50
2018-07-08T04:15:42.451Z,13.40
2018-07-08T04:18:11.420Z,13.40
2018-07-08T04:20:40.681Z,13.40
2018-07-08T04:23:09.809Z,13.40
2018-07-08T04:25:38.546Z,13.40
2018-07-08T04:28:07.412Z,13.40
2018-07-08T04:30:36.456Z,13.50
2018-07-08T04:33:05.405Z,13.50
2018-07-08T04:35:34.598Z,13.60
2018-07-08T04:38:03.447Z,13.70
2018-07-08T04:43:00.344Z,13.70
2018-07-08T04:45:29.257Z,13.70
2018-07-08T04:47:58.014Z,13.90
2018-07-08T04:50:27.068Z,14.00
2018-07-08T04:52:59.744Z,13.90
2018-07-08T04:55:28.760Z,13.90
2018-07-08T04:57:57.503Z,14.10
2018-07-08T05:00:26.475Z,14.20
2018-07-08T05:02:55.219Z,14.40
2018-07-08T05:05:24.311Z,14.40
2018-07-08T05:07:53.463Z,14.50
2018-07-08T05:10:26.153Z,14.80
2018-07-08T05:12:54.946Z,14.80
2018-07-08T05:15:23.919Z,14.80
2018-07-08T05:17:52.769Z,15.20
2018-07-08T05:20:21.543Z,15.60
2018-07-08T05:22:50.646Z,15.80
2018-07-08T05:25:19.535Z,15.70
2018-07-08T05:27:48.388Z,15.70
2018-07-08T05:30:17.537Z,16.00
2018-07-08T05:32:46.473Z,15.70
2018-07-08T05:35:15.522Z,16.00
2018-07-08T05:40:12.833Z,16.50
2018-07-08T05:42:41.889Z,16.60
2018-07-08T05:45:10.877Z,16.60
2018-07-08T05:47:39.618Z,17.00
2018-07-08T05:50:08.781Z,17.20
2018-07-08T05:52:37.512Z,16.90
2018-07-08T05:55:06.538Z,17.80
2018-07-08T05:57:35.507Z,18.60
2018-07-08T06:00:04.690Z,18.50
2018-07-08T06:02:33.692Z,18.50
2018-07-08T06:05:02.593Z,18.60
2018-07-08T06:07:31.570Z,19.20
2018-07-08T06:10:00.472Z,19.30
2018-07-08T06:12:29.547Z,18.80
2018-07-08T06:14:58.495Z,19.20
2018-07-08T06:17:27.480Z,19.20
2018-07-08T06:20:01.673Z,20.10
2018-07-08T06:22:30.494Z,21.10
2018-07-08T06:24:59.175Z,21.90
2018-07-08T06:27:28.235Z,22.60
2018-07-08T06:29:57.255Z,21.40
2018-07-08T06:32:26.201Z,20.70
2018-07-08T06:34:55.115Z,21.80
2018-07-08T06:37:23.991Z,22.20
2018-07-08T06:39:52.796Z,23.40
2018-07-08T06:42:21.829Z,24.10
2018-07-08T06:44:50.881Z,24.90
2018-07-08T06:47:19.650Z,25.20
2018-07-08T06:49:48.656Z,24.50
2018-07-08T06:52:17.597Z,24.10
2018-07-08T06:54:46.488Z,23.80
2018-07-08T06:57:15.214Z,23.10
2018-07-08T06:59:44.161Z,23.30
2018-07-08T07:02:13.019Z,24.00
2018-07-08T07:04:41.954Z,23.80
2018-07-08T07:07:14.537Z,24.00
2018-07-08T07:09:53.142Z,24.70
2018-07-08T07:12:22.038Z,25.40
2018-07-08T07:14:50.867Z,26.30
2018-07-08T07:17:19.688Z,27.70
2018-07-08T07:19:48.561Z,26.50
2018-07-08T07:22:17.671Z,26.30
2018-07-08T07:27:44.779Z,26.10
2018-07-08T07:30:22.021Z,26.90
2018-07-08T07:32:50.959Z,24.50
2018-07-08T07:38:06.045Z,24.70
2018-07-08T07:40:34.989Z,24.90
2018-07-08T07:43:03.973Z,24.00
2018-07-08T07:45:32.865Z,24.10
2018-07-08T07:48:01.660Z,25.40
2018-07-08T07:50:37.247Z,25.20
2018-07-08T07:53:06.200Z,24.00
2018-07-08T07:55:35.476Z,24.90
2018-07-08T07:58:07.972Z,24.90
2018-07-08T08:00:36.876Z,24.50
2018-07-08T08:03:06.165Z,24.30
2018-07-08T08:05:35.112Z,23.70
2018-07-08T08:08:03.889Z,24.40
2018-07-08T08:10:40.688Z,25.00
2018-07-08T08:13:09.828Z,26.10
2018-07-08T08:15:44.065Z,26.70
2018-07-08T08:18:16.631Z,27.00
2018-07-08T08:20:45.971Z,27.20
2018-07-08T08:23:14.850Z,28.00
2018-07-08T08:25:50.000Z,27.60
2018-07-08T08:28:18.929Z,27.00
2018-07-08T08:30:47.994Z,25.80
2018-07-08T08:33:17.127Z,25.60
2018-07-08T08:35:46.076Z,26.40
2018-07-08T08:38:14.979Z,27.10
2018-07-08T08:40:43.819Z,27.70
2018-07-08T08:43:12.694Z,27.90
2018-07-08T08:45:41.496Z,26.30
2018-07-08T08:48:10.523Z,26.00
2018-07-08T08:50:42.977Z,25.80
2018-07-08T08:53:11.946Z,25.70
2018-07-08T08:55:40.834Z,27.60
2018-07-08T08:58:09.644Z,27.40
2018-07-08T09:00:39.052Z,28.30
2018-07-08T09:03:08.024Z,29.20
2018-07-08T09:05:49.861Z,28.00
2018-07-08T09:08:18.719Z,29.60
2018-07-08T09:10:47.691Z,29.50
2018-07-08T09:13:25.785Z,28.90
2018-07-08T09:16:13.153Z,28.70
2018-07-08T09:18:42.018Z,28.70
2018-07-08T09:21:11.072Z,29.90
2018-07-08T09:23:40.068Z,30.30
2018-07-08T09:26:09.221Z,30.10
2018-07-08T09:28:38.006Z,30.80
2018-07-08T09:31:07.474Z,30.90
2018-07-08T09:33:37.254Z,31.00
2018-07-08T09:36:06.752Z,29.20
2018-07-08T09:38:35.589Z,28.20
2018-07-08T09:41:09.006Z,27.50
2018-07-08T09:43:38.050Z,27.10
2018-07-08T09:46:06.895Z,27.80
2018-07-08T09:48:35.687Z,30.20
2018-07-08T09:51:04.689Z,30.90
2018-07-08T09:53:40.437Z,29.40
2018-07-08T09:56:09.417Z,30.20
2018-07-08T09:58:38.206Z,29.20
2018-07-08T10:01:07.109Z,29.50
2018-07-08T10:03:37.017Z,32.50
2018-07-08T10:06:06.230Z,33.20
2018-07-08T10:08:35.671Z,30.60
2018-07-08T10:11:18.184Z,30.80
2018-07-08T10:16:15.750Z,30.40
2018-07-08T10:18:44.662Z,29.80
2018-07-08T10:21:13.595Z,31.10
2018-07-08T10:23:42.643Z,32.60
2018-07-08T10:26:11.381Z,32.20
2018-07-08T10:28:40.701Z,29.50
2018-07-08T10:31:14.295Z,29.90
2018-07-08T10:33:53.713Z,30.20
2018-07-08T10:36:22.723Z,32.00
2018-07-08T10:38:51.541Z,32.20
2018-07-08T10:41:26.431Z,32.00
2018-07-08T10:43:55.644Z,32.70
2018-07-08T10:46:24.552Z,32.40
2018-07-08T10:48:53.520Z,32.10
2018-07-08T10:51:22.413Z,32.90
2018-07-08T10:53:51.289Z,32.50
2018-07-08T10:56:21.427Z,32.50
2018-07-08T10:58:50.440Z,32.50
2018-07-08T11:01:19.768Z,31.40
2018-07-08T11:06:16.730Z,31.50
2018-07-08T11:08:47.839Z,31.90
2018-07-08T11:11:20.217Z,32.80
2018-07-08T11:13:49.616Z,31.90
2018-07-08T11:16:18.477Z,32.10
2018-07-08T11:18:47.398Z,32.60
2018-07-08T11:21:17.218Z,32.20
2018-07-08T11:23:46.268Z,31.60
2018-07-08T11:26:15.484Z,31.50
2018-07-08T11:28:44.493Z,32.60
2018-07-08T11:31:13.477Z,32.40
2018-07-08T11:33:42.266Z,32.70
2018-07-08T11:36:11.383Z,33.00
2018-07-08T11:38:40.252Z,33.70
2018-07-08T11:43:37.506Z,33.00
2018-07-08T11:46:06.663Z,32.70
2018-07-08T11:48:35.644Z,32.30
2018-07-08T11:51:04.829Z,32.90
2018-07-08T11:53:33.902Z,32.80
2018-07-08T11:56:02.580Z,33.30
2018-07-08T11:58:31.536Z,33.30
2018-07-08T12:01:03.552Z,32.90
2018-07-08T12:03:32.505Z,33.00
2018-07-08T12:06:01.482Z,32.70
2018-07-08T12:08:30.287Z,32.80
2018-07-08T12:10:59.368Z,33.40
2018-07-08T12:15:56.397Z,32.40
2018-07-08T12:18:25.434Z,32.50
2018-07-08T12:23:23.312Z,32.90
2018-07-08T12:25:52.146Z,34.00
2018-07-08T12:28:21.663Z,34.30
2018-07-08T12:30:50.611Z,34.20
2018-07-08T12:33:19.345Z,33.30
2018-07-08T12:35:47.944Z,33.70
2018-07-08T12:38:16.707Z,34.00
2018-07-08T12:40:45.645Z,34.00
2018-07-08T12:43:14.617Z,33.80
2018-07-08T12:45:43.689Z,33.90
2018-07-08T12:48:12.929Z,33.00
2018-07-08T12:50:41.766Z,33.10
2018-07-08T12:53:10.561Z,33.60
2018-07-08T12:55:39.603Z,33.20
2018-07-08T12:58:12.951Z,33.50
2018-07-08T13:00:41.901Z,34.10
2018-07-08T13:03:10.946Z,33.90
2018-07-08T13:05:39.737Z,34.10
2018-07-08T13:08:09.731Z,33.20
2018-07-08T13:10:38.688Z,33.40
2018-07-08T13:13:07.637Z,33.50
2018-07-08T13:15:36.557Z,32.70
2018-07-08T13:18:05.459Z,32.70
2018-07-08T13:20:34.275Z,33.10
2018-07-08T13:23:03.096Z,33.00
2018-07-08T13:25:32.131Z,32.70
2018-07-08T13:28:01.180Z,32.30
2018-07-08T13:30:30.088Z,32.70
2018-07-08T13:32:59.319Z,33.10
2018-07-08T13:35:28.012Z,33.40
2018-07-08T13:37:56.861Z,33.80
2018-07-08T13:40:25.694Z,33.60
2018-07-08T13:42:54.675Z,32.70
2018-07-08T13:45:23.640Z,33.20
2018-07-08T13:47:52.527Z,33.30
2018-07-08T13:50:21.429Z,32.70
2018-07-08T13:52:50.354Z,33.20
2018-07-08T13:55:19.214Z,33.20
2018-07-08T13:57:47.994Z,33.20
2018-07-08T14:00:16.999Z,33.50
2018-07-08T14:02:45.865Z,33.70
2018-07-08T14:05:14.900Z,34.40
2018-07-08T14:07:44.132Z,33.60
2018-07-08T14:10:13.372Z,33.70
2018-07-08T14:12:42.141Z,33.80
2018-07-08T14:15:11.138Z,34.60
2018-07-08T14:17:40.272Z,34.60
2018-07-08T14:20:09.409Z,33.70
2018-07-08T14:22:38.349Z,33.20
2018-07-08T14:25:07.446Z,34.10
2018-07-08T14:27:36.415Z,34.20
2018-07-08T14:30:05.512Z,34.20
2018-07-08T14:32:34.568Z,34.50
2018-07-08T14:37:32.798Z,33.60
2018-07-08T14:40:01.923Z,34.50
2018-07-08T14:42:45.094Z,34.60
2018-07-08T14:45:15.151Z,34.40
2018-07-08T14:47:47.947Z,34.50
2018-07-08T14:50:16.974Z,34.90
2018-07-08T14:52:45.981Z,34.90
2018-07-08T14:55:14.969Z,34.40
2018-07-08T14:57:43.962Z,34.60
2018-07-08T15:00:12.995Z,33.40
2018-07-08T15:02:57.912Z,33.70
2018-07-08T15:05:27.114Z,34.70
2018-07-08T15:07:56.335Z,34.80
2018-07-08T15:10:25.503Z,34.60
2018-07-08T15:12:55.017Z,34.70
2018-07-08T15:15:23.998Z,34.20
2018-07-08T15:20:21.396Z,35.10
2018-07-08T15:22:50.460Z,34.10
2018-07-08T15:25:19.501Z,35.20
2018-07-08T15:27:48.480Z,34.30
2018-07-08T15:30:17.573Z,34.40
2018-07-08T15:32:47.052Z,34.10
2018-07-08T15:35:16.051Z,35.40
2018-07-08T15:37:45.044Z,34.80
2018-07-08T15:42:43.853Z,34.90
2018-07-08T15:45:12.953Z,35.10
2018-07-08T15:50:10.435Z,34.60
2018-07-08T15:52:39.525Z,34.50
2018-07-08T15:55:08.550Z,34.70
2018-07-08T15:57:38.123Z,35.10
2018-07-08T16:00:07.345Z,34.80
2018-07-08T16:02:36.776Z,34.40
2018-07-08T16:05:05.786Z,34.50
2018-07-08T16:07:35.234Z,34.70
2018-07-08T16:10:11.195Z,34.20
2018-07-08T16:15:08.555Z,34.30
2018-07-08T16:17:37.590Z,33.60
2018-07-08T16:20:06.868Z,33.90
2018-07-08T16:22:36.064Z,34.60
2018-07-08T16:25:05.096Z,34.20
2018-07-08T16:27:34.213Z,34.00
2018-07-08T16:30:03.446Z,33.70
2018-07-08T16:32:36.949Z,33.90
2018-07-08T16:35:07.045Z,34.40
2018-07-08T16:37:36.004Z,33.90
2018-07-08T16:40:05.061Z,33.80
2018-07-08T16:42:41.078Z,33.40
2018-07-08T16:45:10.047Z,33.70
2018-07-08T16:48:00.464Z,33.70
2018-07-08T16:50:29.375Z,34.30
2018-07-08T16:55:26.509Z,33.50
2018-07-08T16:57:55.520Z,33.50
2018-07-08T17:00:24.352Z,33.20
2018-07-08T17:02:53.294Z,33.00
2018-07-08T17:05:22.481Z,33.20
2018-07-08T17:07:51.622Z,33.00
2018-07-08T17:10:20.720Z,32.90
2018-07-08T17:12:50.012Z,32.70
2018-07-08T17:15:19.295Z,32.40
2018-07-08T17:17:48.279Z,32.30
2018-07-08T17:20:17.322Z,32.00
2018-07-08T17:22:46.513Z,32.20
2018-07-08T17:25:15.599Z,32.30
2018-07-08T17:27:44.724Z,32.20
2018-07-08T17:30:14.011Z,32.10
2018-07-08T17:32:42.963Z,32.00
2018-07-08T17:35:11.848Z,31.80
2018-07-08T17:37:41.449Z,32.30
2018-07-08T17:40:10.326Z,31.90
2018-07-08T17:42:39.243Z,31.60
2018-07-08T17:45:08.127Z,31.20
2018-07-08T17:47:43.077Z,31.50
2018-07-08T17:50:12.042Z,31.20
2018-07-08T17:52:41.026Z,31.20
2018-07-08T17:55:13.863Z,31.20
2018-07-08T18:00:17.073Z,30.60
2018-07-08T18:05:14.630Z,30.80
2018-07-08T18:07:47.616Z,30.50
2018-07-08T18:10:22.979Z,30.90
2018-07-08T18:12:51.827Z,30.90
2018-07-08T18:15:25.115Z,30.50
2018-07-08T18:17:54.498Z,30.40
2018-07-08T18:20:23.425Z,30.10
2018-07-08T18:23:00.237Z,30.50
2018-07-08T18:25:29.227Z,29.90
2018-07-08T18:27:58.085Z,29.70
2018-07-08T18:30:32.342Z,29.70
2018-07-08T18:33:01.284Z,29.70
2018-07-08T18:35:30.724Z,29.80
2018-07-08T18:37:59.556Z,29.70
2018-07-08T18:40:28.474Z,29.40
2018-07-08T18:42:57.615Z,29.50
2018-07-08T18:45:26.477Z,29.30
2018-07-08T18:47:55.473Z,29.10
2018-07-08T18:50:24.253Z,29.00
2018-07-08T18:52:53.266Z,29.10
2018-07-08T18:55:25.535Z,28.70
2018-07-08T18:57:54.467Z,28.60
2018-07-08T19:00:23.518Z,28.40
2018-07-08T19:02:52.754Z,28.40
2018-07-08T19:05:21.879Z,28.40
2018-07-08T19:07:50.832Z,28.40
2018-07-08T19:10:19.840Z,28.20
2018-07-08T19:12:50.937Z,28.10
2018-07-08T19:15:20.015Z,28.00
2018-07-08T19:17:49.054Z,27.70
2018-07-08T19:20:18.141Z,27.50
2018-07-08T19:22:47.147Z,27.20
2018-07-08T19:25:16.031Z,27.30
2018-07-08T19:27:45.303Z,26.80
2018-07-08T19:30:14.341Z,26.80
2018-07-08T19:32:43.221Z,26.70
2018-07-08T19:37:40.792Z,26.30
2018-07-08T19:40:10.239Z,26.20
2018-07-08T19:42:39.221Z,26.20
2018-07-08T19:45:08.037Z,25.80
2018-07-08T19:47:37.012Z,25.70
2018-07-08T19:50:06.037Z,25.70
2018-07-08T19:52:35.551Z,25.50
2018-07-08T19:55:04.732Z,25.40
2018-07-08T19:57:33.714Z,25.20
2018-07-08T20:00:02.700Z,25.00
2018-07-08T20:02:33.732Z,24.90
2018-07-08T20:05:02.606Z,24.70
2018-07-08T20:07:32.100Z,24.60
2018-07-08T20:10:01.200Z,24.50
2018-07-08T20:12:30.475Z,24.40
2018-07-08T20:14:59.765Z,24.00
2018-07-08T20:17:37.051Z,23.90
2018-07-08T20:20:09.293Z,23.80
2018-07-08T20:22:38.683Z,23.70
2018-07-08T20:25:08.071Z,23.70
2018-07-08T20:27:37.165Z,23.60
2018-07-08T20:30:06.810Z,23.40
2018-07-08T20:32:35.924Z,23.20
2018-07-08T20:35:05.073Z,23.10
2018-07-08T20:37:34.128Z,23.10
2018-07-08T20:40:03.119Z,22.90
2018-07-08T20:42:32.185Z,22.80
2018-07-08T20:45:01.195Z,22.70
2018-07-08T20:47:30.064Z,22.60
2018-07-08T20:49:58.869Z,22.50
2018-07-08T20:52:27.893Z,22.30
2018-07-08T20:54:56.707Z,22.20
2018-07-08T20:57:29.384Z,22.10
2018-07-08T20:59:58.364Z,22.10
2018-07-08T21:02:32.100Z,21.80
2018-07-08T21:05:00.962Z,21.40
2018-07-08T21:07:30.067Z,21.50
2018-07-08T21:09:59.163Z,21.20
2018-07-08T21:12:28.004Z,21.10
2018-07-08T21:14:57.133Z,20.90
2018-07-08T21:17:25.986Z,20.90
2018-07-08T21:19:54.963Z,20.80
2018-07-08T21:22:35.600Z,20.70
2018-07-08T21:25:04.765Z,20.50
2018-07-08T21:27:33.637Z,20.50
2018-07-08T21:30:02.635Z,20.40
2018-07-08T21:32:31.435Z,20.60
2018-07-08T21:35:01.337Z,20.50
2018-07-08T21:37:30.385Z,20.50
2018-07-08T21:44:58.123Z,20.30
2018-07-08T21:47:27.046Z,20.30
2018-07-08T21:49:56.109Z,20.20
2018-07-08T21:52:25.262Z,20.10
2018-07-08T21:54:54.352Z,19.90
2018-07-08T21:57:23.251Z,19.90
2018-07-08T21:59:52.312Z,19.90
2018-07-08T22:02:22.256Z,19.80
2018-07-08T22:04:51.321Z,19.70
2018-07-08T22:07:22.903Z,19.40
2018-07-08T22:09:53.260Z,19.50
2018-07-08T22:12:22.127Z,19.40
2018-07-08T22:14:51.062Z,19.40
2018-07-08T22:17:30.347Z,19.00
2018-07-08T22:22:27.984Z,19.00
2018-07-08T22:24:57.131Z,18.90
2018-07-08T22:27:26.174Z,19.00
2018-07-08T22:29:55.067Z,18.90
2018-07-08T22:32:30.335Z,18.90
2018-07-08T22:34:59.468Z,18.90
2018-07-08T22:37:28.722Z,18.60
2018-07-08T22:39:57.752Z,18.60
2018-07-08T22:42:26.850Z,18.60
2018-07-08T22:47:26.537Z,18.60
2018-07-08T22:49:55.621Z,18.50
2018-07-08T22:52:24.757Z,18.50
2018-07-08T22:54:53.878Z,18.40
2018-07-08T22:57:23.025Z,18.40
2018-07-08T23:00:02.974Z,18.30
2018-07-08T23:02:39.174Z,18.20
2018-07-08T23:05:08.032Z,18.20
2018-07-08T23:07:37.432Z,18.10
2018-07-08T23:10:06.730Z,18.10
2018-07-08T23:12:35.605Z,18.00
2018-07-08T23:15:04.514Z,17.90
2018-07-08T23:17:33.605Z,17.90
2018-07-08T23:20:06.291Z,17.80
2018-07-08T23:22:45.943Z,17.80
2018-07-08T23:25:15.086Z,17.80
2018-07-08T23:27:44.045Z,17.70
2018-07-08T23:30:12.952Z,17.60
2018-07-08T23:32:42.318Z,17.60
2018-07-08T23:35:11.090Z,17.50
2018-07-08T23:37:39.862Z,17.50
2018-07-08T23:40:08.923Z,17.40
2018-07-08T23:45:06.053Z,17.40
2018-07-08T23:47:35.073Z,17.30
2018-07-08T23:50:04.618Z,17.30
2018-07-08T23:52:33.892Z,17.20
2018-07-08T23:57:31.406Z,17.00
